createdAt,value
2022-11-05T00:00:57.264Z,100.00
2022-11-05T00:03:42.414Z,99.76
2022-11-05T00:06:34.553Z,99.75
2022-11-05T00:09:22.510Z,99.14
2022-11-05T00:12:11.469Z,98.45
2022-11-05T00:15:00.573Z,97.43
2022-11-05T00:18:04.677Z,96.36
2022-11-05T00:20:53.154Z,95.69
2022-11-05T00:23:54.306Z,94.28
2022-11-05T00:26:27.445Z,95.71
2022-11-05T00:29:02.048Z,96.22
2022-11-05T00:31:33.676Z,96.94
2022-11-05T00:34:03.949Z,97.63
2022-11-05T00:36:38.196Z,98.13
2022-11-05T00:39:53.004Z,97.38
2022-11-05T00:42:45.904Z,98.19
2022-11-05T00:45:16.959Z,98.12
2022-11-05T00:48:19.407Z,98.90
2022-11-05T00:50:50.754Z,98.88
2022-11-05T00:53:25.639Z,99.09
2022-11-05T00:56:04.355Z,99.52
2022-11-05T00:58:32.363Z,98.23
2022-11-05T01:02:04.357Z,98.35
2022-11-05T01:04:06.420Z,98.72
2022-11-05T01:06:40.005Z,99.72
2022-11-05T01:09:10.913Z,99.55
2022-11-05T01:12:24.294Z,100.00
2022-11-05T01:15:22.689Z,100.00
2022-11-05T01:18:14.070Z,99.78
2022-11-05T01:20:53.342Z,100.00
2022-11-05T01:23:28.747Z,99.60
2022-11-05T01:26:07.473Z,99.97
2022-11-05T01:28:39.468Z,99.88
2022-11-05T01:31:16.395Z,100.00
2022-11-05T01:33:49.225Z,100.00
2022-11-05T01:36:17.129Z,100.00
2022-11-05T01:38:46.759Z,100.00
2022-11-05T01:41:34.912Z,100.00
2022-11-05T01:44:52.220Z,100.00
2022-11-05T01:47:44.364Z,100.00
2022-11-05T01:50:31.570Z,100.00
2022-11-05T01:53:04.679Z,100.00
2022-11-05T01:55:35.315Z,100.00
2022-11-05T01:58:04.479Z,100.00
2022-11-05T02:00:58.411Z,100.00
2022-11-05T02:04:02.154Z,100.00
2022-11-05T02:06:30.614Z,100.00
2022-11-05T02:09:01.519Z,100.00
2022-11-05T02:11:49.816Z,100.00
2022-11-05T02:14:30.188Z,100.00
2022-11-05T02:17:13.063Z,100.00
2022-11-05T02:24:12.760Z,100.00
2022-11-05T02:30:04.848Z,100.00
2022-11-05T02:33:24.436Z,100.00
2022-11-05T02:36:33.652Z,100.00
2022-11-05T02:42:22.280Z,100.00
2022-11-05T02:45:12.546Z,100.00
2022-11-05T02:48:07.112Z,100.00
2022-11-05T02:50:57.740Z,100.00
2022-11-05T02:53:54.873Z,100.00
2022-11-05T02:56:49.286Z,100.00
2022-11-05T02:59:21.345Z,100.00
2022-11-05T03:01:49.421Z,100.00
2022-11-05T03:04:20.828Z,100.00
2022-11-05T03:07:08.222Z,100.00
2022-11-05T03:09:58.285Z,100.00
2022-11-05T03:12:33.485Z,100.00
2022-11-05T03:15:08.940Z,100.00
2022-11-05T03:17:42.591Z,100.00
2022-11-05T03:20:18.588Z,100.00
2022-11-05T03:22:52.355Z,100.00
2022-11-05T03:25:22.563Z,100.00
2022-11-05T03:27:55.719Z,100.00
2022-11-05T03:30:24.931Z,99.87
2022-11-05T03:32:56.126Z,99.57
2022-11-05T03:35:27.618Z,99.93
2022-11-05T03:37:58.909Z,100.00
2022-11-05T03:40:27.425Z,100.00
2022-11-05T03:42:56.492Z,99.99
2022-11-05T03:45:27.779Z,99.93
2022-11-05T03:47:59.002Z,99.85
2022-11-05T03:50:35.888Z,99.23
2022-11-05T03:53:29.251Z,99.65
2022-11-05T03:56:02.025Z,100.00
2022-11-05T03:58:30.502Z,99.67
2022-11-05T04:01:01.020Z,98.80
2022-11-05T04:03:28.640Z,99.07
2022-11-05T04:06:15.250Z,97.91
2022-11-05T04:09:00.486Z,98.38
2022-11-05T04:11:45.557Z,97.99
2022-11-05T04:14:13.120Z,97.51
2022-11-05T04:17:09.645Z,98.26
2022-11-05T04:20:04.507Z,96.87
2022-11-05T04:22:52.768Z,96.34
2022-11-05T04:25:21.859Z,95.88
2022-11-05T04:27:49.683Z,96.35
2022-11-05T04:30:20.548Z,96.96
2022-11-05T04:33:02.770Z,98.37
2022-11-05T04:35:31.453Z,98.86
2022-11-05T04:38:00.585Z,99.35
2022-11-05T04:40:28.272Z,98.43
2022-11-05T04:42:56.497Z,98.16
2022-11-05T04:45:36.918Z,98.62
2022-11-05T04:48:06.525Z,98.94
2022-11-05T04:50:34.972Z,99.28
2022-11-05T04:53:05.683Z,99.56
2022-11-05T04:55:33.315Z,99.47
2022-11-05T04:58:00.971Z,100.00
2022-11-05T05:00:29.387Z,100.00
2022-11-05T05:02:57.741Z,100.00
2022-11-05T05:05:26.511Z,100.00
2022-11-05T05:07:54.075Z,100.00
2022-11-05T05:10:23.480Z,100.00
2022-11-05T05:12:51.113Z,100.00
2022-11-05T05:15:18.851Z,99.93
2022-11-05T05:17:51.218Z,99.95
2022-11-05T05:20:36.240Z,100.00
2022-11-05T05:23:04.201Z,100.00
2022-11-05T05:25:33.415Z,100.00
2022-11-05T05:28:00.939Z,100.00
2022-11-05T05:30:28.566Z,100.00
2022-11-05T05:32:56.362Z,100.00
2022-11-05T05:35:24.788Z,100.00
2022-11-05T05:37:56.091Z,99.52
2022-11-05T05:40:25.150Z,99.34
2022-11-05T05:42:56.194Z,98.42
2022-11-05T05:45:23.786Z,97.88
2022-11-05T05:47:51.358Z,97.47
2022-11-05T05:50:20.273Z,96.75
2022-11-05T05:52:47.859Z,97.13
2022-11-05T05:55:15.468Z,96.17
2022-11-05T05:57:43.049Z,95.31
2022-11-05T06:00:14.116Z,95.42
2022-11-05T06:02:41.903Z,95.06
2022-11-05T06:05:11.262Z,94.95
2022-11-05T06:07:38.858Z,94.63
2022-11-05T06:10:07.510Z,95.47
2022-11-05T06:12:35.173Z,95.00
2022-11-05T06:15:03.163Z,94.07
2022-11-05T06:17:37.544Z,93.85
2022-11-05T06:20:06.028Z,94.71
2022-11-05T06:22:33.660Z,94.14
2022-11-05T06:25:01.618Z,95.50
2022-11-05T06:27:29.838Z,95.71
2022-11-05T06:29:57.548Z,95.08
2022-11-05T06:32:25.250Z,95.89
2022-11-05T06:34:54.165Z,96.10
2022-11-05T06:37:21.974Z,95.66
2022-11-05T06:39:49.885Z,96.29
2022-11-05T06:42:22.723Z,96.24
2022-11-05T06:45:08.736Z,96.04
2022-11-05T06:48:01.634Z,97.58
2022-11-05T06:50:39.216Z,97.53
2022-11-05T06:53:22.868Z,97.61
2022-11-05T06:55:50.607Z,97.44
2022-11-05T06:58:18.146Z,97.46
2022-11-05T07:00:45.960Z,97.68
2022-11-05T07:03:14.095Z,97.84
2022-11-05T07:05:45.035Z,95.99
2022-11-05T07:08:12.609Z,96.66
2022-11-05T07:10:40.263Z,96.83
2022-11-05T07:13:08.356Z,96.71
2022-11-05T07:15:36.566Z,96.63
2022-11-05T07:18:05.178Z,95.97
2022-11-05T07:20:34.438Z,96.53
2022-11-05T07:23:07.612Z,95.32
2022-11-05T07:25:35.977Z,96.60
2022-11-05T07:28:06.946Z,96.08
2022-11-05T07:30:35.878Z,96.90
2022-11-05T07:33:08.275Z,96.45
2022-11-05T07:35:36.309Z,96.57
2022-11-05T07:38:15.804Z,96.04
2022-11-05T07:40:49.708Z,95.81
2022-11-05T07:43:25.380Z,95.05
2022-11-05T07:45:56.951Z,94.88
2022-11-05T07:48:24.737Z,95.21
2022-11-05T07:50:57.685Z,95.08
2022-11-05T07:53:45.553Z,94.47
2022-11-05T07:56:13.802Z,93.94
2022-11-05T07:58:49.450Z,94.21
2022-11-05T08:01:22.129Z,94.11
2022-11-05T08:03:52.885Z,94.87
2022-11-05T08:06:20.859Z,94.77
2022-11-05T08:08:56.254Z,94.10
2022-11-05T08:11:24.406Z,94.30
2022-11-05T08:13:57.262Z,95.00
2022-11-05T08:16:26.345Z,95.36
2022-11-05T08:18:53.878Z,95.21
2022-11-05T08:21:24.472Z,96.10
2022-11-05T08:23:53.453Z,95.97
2022-11-05T08:26:24.919Z,95.68
2022-11-05T08:28:52.587Z,95.75
2022-11-05T08:31:20.257Z,95.68
2022-11-05T08:33:47.768Z,94.46
2022-11-05T08:36:15.359Z,94.05
2022-11-05T08:38:42.826Z,95.07
2022-11-05T08:41:11.863Z,94.56
2022-11-05T08:43:39.351Z,94.64
2022-11-05T08:46:07.085Z,94.90
2022-11-05T08:48:34.625Z,94.21
2022-11-05T08:51:02.592Z,94.16
2022-11-05T08:53:30.143Z,93.99
2022-11-05T08:55:59.333Z,94.64
2022-11-05T08:58:28.144Z,94.13
2022-11-05T09:00:58.999Z,94.41
2022-11-05T09:03:29.414Z,94.64
2022-11-05T09:05:56.954Z,94.43
2022-11-05T09:08:24.469Z,94.45
2022-11-05T09:10:51.923Z,94.47
2022-11-05T09:13:22.501Z,94.34
2022-11-05T09:15:51.861Z,93.37
2022-11-05T09:18:20.378Z,92.65
2022-11-05T09:20:48.168Z,92.18
2022-11-05T09:23:16.889Z,91.73
2022-11-05T09:25:45.034Z,91.04
2022-11-05T09:28:16.866Z,89.71
2022-11-05T09:30:46.143Z,89.56
2022-11-05T09:33:15.497Z,88.90
2022-11-05T09:35:43.698Z,88.78
2022-11-05T09:38:11.532Z,88.29
2022-11-05T09:40:43.452Z,87.82
2022-11-05T09:43:26.043Z,86.96
2022-11-05T09:46:06.189Z,84.96
2022-11-05T09:48:36.456Z,85.74
2022-11-05T09:51:05.377Z,86.71
2022-11-05T09:53:33.183Z,86.68
2022-11-05T09:56:01.702Z,87.15
2022-11-05T09:58:46.817Z,86.53
2022-11-05T10:01:17.140Z,85.72
2022-11-05T10:04:00.215Z,84.32
2022-11-05T10:06:30.843Z,83.31
2022-11-05T10:09:04.758Z,84.63
2022-11-05T10:11:36.225Z,84.80
2022-11-05T10:14:08.577Z,85.15
2022-11-05T10:16:37.529Z,86.00
2022-11-05T10:19:09.730Z,85.68
2022-11-05T10:22:04.845Z,85.31
2022-11-05T10:24:28.625Z,85.34
2022-11-05T10:26:56.556Z,84.89
2022-11-05T10:29:27.500Z,84.89
2022-11-05T10:31:58.990Z,83.93
2022-11-05T10:34:30.288Z,83.40
2022-11-05T10:36:58.141Z,82.73
2022-11-05T10:39:27.973Z,82.57
2022-11-05T10:42:18.563Z,82.99
2022-11-05T10:44:50.799Z,83.13
2022-11-05T10:47:33.798Z,81.66
2022-11-05T10:50:04.241Z,82.24
2022-11-05T10:52:34.935Z,80.92
2022-11-05T10:55:05.507Z,79.52
2022-11-05T10:57:36.073Z,79.62
2022-11-05T11:00:23.940Z,80.42
2022-11-05T11:02:53.391Z,79.21
2022-11-05T11:05:24.234Z,79.70
2022-11-05T11:07:58.420Z,79.15
2022-11-05T11:10:26.720Z,79.48
2022-11-05T11:12:55.243Z,78.49
2022-11-05T11:15:27.434Z,77.99
2022-11-05T11:17:57.695Z,77.40
2022-11-05T11:20:29.535Z,77.31
2022-11-05T11:23:03.161Z,76.96
2022-11-05T11:25:33.379Z,76.23
2022-11-05T11:28:05.241Z,74.57
2022-11-05T11:30:33.673Z,75.30
2022-11-05T11:33:06.827Z,74.49
2022-11-05T11:35:37.986Z,74.42
2022-11-05T11:38:06.701Z,74.73
2022-11-05T11:40:36.400Z,74.71
2022-11-05T11:43:06.911Z,75.13
2022-11-05T11:45:36.723Z,74.82
2022-11-05T11:48:07.270Z,76.59
2022-11-05T11:50:38.967Z,77.64
2022-11-05T11:53:27.156Z,76.79
2022-11-05T11:55:59.942Z,77.15
2022-11-05T11:58:38.310Z,75.75
2022-11-05T12:01:16.621Z,76.51
2022-11-05T12:03:50.378Z,76.24
2022-11-05T12:06:26.604Z,77.43
2022-11-05T12:09:03.562Z,75.01
2022-11-05T12:11:36.660Z,75.97
2022-11-05T12:14:06.298Z,75.56
2022-11-05T12:17:02.632Z,75.56
2022-11-05T12:19:43.081Z,76.49
2022-11-05T12:22:20.776Z,77.77
2022-11-05T12:25:02.419Z,76.08
2022-11-05T12:27:44.864Z,76.36
2022-11-05T12:30:15.306Z,76.23
2022-11-05T12:32:58.520Z,75.47
2022-11-05T12:35:44.205Z,77.06
2022-11-05T12:38:28.076Z,75.13
2022-11-05T12:41:06.259Z,74.68
2022-11-05T12:43:42.804Z,77.42
2022-11-05T12:46:27.573Z,76.39
2022-11-05T12:49:04.864Z,74.90
2022-11-05T12:51:41.691Z,75.81
2022-11-05T12:54:19.250Z,74.71
2022-11-05T12:56:49.038Z,76.36
2022-11-05T12:59:22.102Z,75.31
2022-11-05T13:01:51.911Z,74.15
2022-11-05T13:04:31.366Z,75.82
2022-11-05T13:07:01.727Z,76.38
2022-11-05T13:09:35.557Z,75.45
2022-11-05T13:12:06.237Z,75.88
2022-11-05T13:14:37.105Z,76.95
2022-11-05T13:17:07.413Z,76.19
2022-11-05T13:19:38.481Z,77.22
2022-11-05T13:22:13.140Z,77.88
2022-11-05T13:24:46.880Z,75.58
2022-11-05T13:27:28.983Z,77.00
2022-11-05T13:30:00.872Z,77.14
2022-11-05T13:32:30.511Z,76.12
2022-11-05T13:34:58.192Z,76.06
2022-11-05T13:37:45.703Z,75.31
2022-11-05T13:40:17.804Z,75.30
2022-11-05T13:43:13.373Z,72.77
2022-11-05T13:45:52.826Z,72.43
2022-11-05T13:48:39.637Z,72.63
2022-11-05T13:51:27.321Z,72.57
2022-11-05T13:54:10.770Z,73.60
2022-11-05T13:56:52.469Z,75.04
2022-11-05T13:59:33.765Z,74.74
2022-11-05T14:02:03.421Z,74.48
2022-11-05T14:04:33.863Z,74.91
2022-11-05T14:07:09.708Z,75.27
2022-11-05T14:09:38.344Z,75.68
2022-11-05T14:12:08.817Z,75.56
2022-11-05T14:14:44.174Z,76.44
2022-11-05T14:17:17.004Z,77.03
2022-11-05T14:19:53.150Z,77.14
2022-11-05T14:22:38.149Z,75.90
2022-11-05T14:25:39.451Z,76.11
2022-11-05T14:28:45.644Z,76.09
2022-11-05T14:32:02.507Z,76.12
2022-11-05T14:34:24.854Z,77.03
2022-11-05T14:37:29.380Z,76.58
2022-11-05T14:39:57.734Z,76.12
2022-11-05T14:42:27.866Z,77.01
2022-11-05T14:45:06.220Z,77.62
2022-11-05T14:47:39.250Z,77.02
2022-11-05T14:50:11.546Z,77.03
2022-11-05T14:52:41.687Z,77.85
2022-11-05T14:55:27.559Z,78.20
2022-11-05T14:58:09.543Z,77.86
2022-11-05T15:00:49.032Z,77.66
2022-11-05T15:03:50.287Z,78.34
2022-11-05T15:06:32.582Z,79.32
2022-11-05T15:09:34.072Z,78.56
2022-11-05T15:12:20.474Z,78.59
2022-11-05T15:14:59.573Z,78.98
2022-11-05T15:17:30.908Z,79.25
2022-11-05T15:20:09.336Z,79.00
2022-11-05T15:22:40.485Z,78.54
2022-11-05T15:25:19.392Z,79.49
2022-11-05T15:27:57.919Z,79.68
2022-11-05T15:30:27.515Z,80.94
2022-11-05T15:33:11.467Z,80.23
2022-11-05T15:35:41.547Z,79.03
2022-11-05T15:38:28.910Z,79.84
2022-11-05T15:41:01.436Z,80.20
2022-11-05T15:43:29.253Z,79.80
2022-11-05T15:46:02.642Z,80.07
2022-11-05T15:48:33.412Z,79.97
2022-11-05T15:51:11.886Z,81.21
2022-11-05T15:56:58.950Z,81.31
2022-11-05T15:59:28.161Z,82.05
2022-11-05T16:01:59.889Z,82.10
2022-11-05T16:04:33.020Z,82.17
2022-11-05T16:07:04.533Z,83.41
2022-11-05T16:09:33.852Z,82.29
2022-11-05T16:12:15.920Z,82.41
2022-11-05T16:14:45.819Z,83.32
2022-11-05T16:17:21.387Z,83.37
2022-11-05T16:19:51.403Z,82.76
2022-11-05T16:22:19.663Z,83.33
2022-11-05T16:24:48.306Z,83.47
2022-11-05T16:27:19.580Z,84.28
2022-11-05T16:29:53.033Z,85.24
2022-11-05T16:32:28.630Z,85.69
2022-11-05T16:35:00.611Z,85.76
2022-11-05T16:37:28.971Z,85.28
2022-11-05T16:39:56.742Z,85.30
2022-11-05T16:42:38.986Z,86.46
2022-11-05T16:45:07.952Z,87.54
2022-11-05T16:47:35.662Z,88.15
2022-11-05T16:50:15.079Z,87.40
2022-11-05T16:52:42.897Z,87.98
2022-11-05T16:55:10.618Z,88.38
2022-11-05T16:57:38.326Z,89.17
2022-11-05T17:00:07.604Z,88.82
2022-11-05T17:02:35.370Z,89.24
2022-11-05T17:05:04.604Z,89.11
2022-11-05T17:07:38.562Z,88.52
2022-11-05T17:10:09.245Z,88.83
2022-11-05T17:12:36.970Z,88.70
2022-11-05T17:15:16.029Z,88.98
2022-11-05T17:17:43.856Z,88.49
2022-11-05T17:20:15.512Z,88.98
2022-11-05T17:22:43.296Z,88.65
2022-11-05T17:25:11.116Z,88.28
2022-11-05T17:27:39.129Z,88.00
2022-11-05T17:30:08.445Z,88.16
2022-11-05T17:32:36.259Z,88.33
2022-11-05T17:35:04.737Z,88.60
2022-11-05T17:37:36.074Z,88.68
2022-11-05T17:40:04.866Z,89.37
2022-11-05T17:42:32.542Z,89.70
2022-11-05T17:45:00.336Z,89.62
2022-11-05T17:47:32.044Z,90.07
2022-11-05T17:49:59.823Z,89.46
2022-11-05T17:52:28.900Z,89.28
2022-11-05T17:54:59.955Z,89.52
2022-11-05T17:57:28.497Z,89.69
2022-11-05T17:59:56.264Z,88.88
2022-11-05T18:02:24.002Z,88.89
2022-11-05T18:04:52.125Z,88.33
2022-11-05T18:07:19.896Z,88.73
2022-11-05T18:09:47.852Z,89.49
2022-11-05T18:12:17.051Z,89.26
2022-11-05T18:14:44.849Z,88.82
2022-11-05T18:17:14.518Z,89.35
2022-11-05T18:19:42.206Z,89.31
2022-11-05T18:22:09.903Z,89.31
2022-11-05T18:24:37.470Z,88.66
2022-11-05T18:27:05.345Z,88.87
2022-11-05T18:29:34.394Z,88.37
2022-11-05T18:32:02.121Z,88.21
2022-11-05T18:34:30.010Z,88.44
2022-11-05T18:36:57.818Z,88.59
2022-11-05T18:39:25.775Z,88.64
2022-11-05T18:41:53.489Z,88.54
2022-11-05T18:44:22.866Z,88.95
2022-11-05T18:46:57.982Z,88.01
2022-11-05T18:49:26.370Z,88.46
2022-11-05T18:51:54.152Z,88.83
2022-11-05T18:54:21.990Z,88.05
2022-11-05T18:56:49.578Z,88.06
2022-11-05T19:02:09.217Z,88.70
2022-11-05T19:04:37.169Z,88.38
2022-11-05T19:07:06.002Z,88.82
2022-11-05T19:09:36.983Z,88.86
2022-11-05T19:12:07.111Z,89.07
2022-11-05T19:14:35.376Z,89.11
2022-11-05T19:17:04.253Z,89.50
2022-11-05T19:19:33.284Z,89.13
2022-11-05T19:22:00.960Z,89.51
2022-11-05T19:24:28.694Z,89.42
2022-11-05T19:26:56.762Z,89.35
2022-11-05T19:29:24.498Z,88.92
2022-11-05T19:31:52.296Z,89.26
2022-11-05T19:34:20.515Z,89.10
2022-11-05T19:36:49.559Z,88.69
2022-11-05T19:39:17.191Z,88.55
2022-11-05T19:41:44.781Z,89.32
2022-11-05T19:44:12.581Z,89.35
2022-11-05T19:46:40.244Z,89.47
2022-11-05T19:49:08.083Z,89.01
2022-11-05T19:51:35.678Z,89.07
2022-11-05T19:54:07.757Z,89.02
2022-11-05T19:56:36.719Z,88.72
2022-11-05T19:59:05.611Z,89.47
2022-11-05T20:01:34.132Z,89.56
2022-11-05T20:04:02.414Z,89.64
2022-11-05T20:06:32.899Z,89.98
2022-11-05T20:11:53.753Z,89.95
2022-11-05T20:14:21.755Z,89.94
2022-11-05T20:16:49.966Z,90.59
2022-11-05T20:19:19.376Z,90.55
2022-11-05T20:21:47.472Z,90.52
2022-11-05T20:24:23.326Z,90.82
2022-11-05T20:26:53.951Z,91.14
2022-11-05T20:29:22.341Z,90.84
2022-11-05T20:31:50.525Z,91.22
2022-11-05T20:34:18.167Z,91.26
2022-11-05T20:36:45.882Z,91.01
2022-11-05T20:39:15.339Z,91.36
2022-11-05T20:41:43.309Z,91.36
2022-11-05T20:44:12.448Z,91.43
2022-11-05T20:46:40.593Z,91.47
2022-11-05T20:49:08.215Z,91.09
2022-11-05T20:51:35.978Z,90.79
2022-11-05T20:54:04.293Z,91.11
2022-11-05T20:56:34.676Z,91.05
2022-11-05T20:59:02.977Z,91.23
2022-11-05T21:01:33.767Z,91.18
2022-11-05T21:04:02.810Z,91.05
2022-11-05T21:06:30.746Z,91.67
2022-11-05T21:08:58.700Z,91.75
2022-11-05T21:11:26.596Z,91.25
2022-11-05T21:13:55.099Z,91.64
2022-11-05T21:16:22.812Z,91.92
2022-11-05T21:18:51.929Z,91.48
2022-11-05T21:21:21.562Z,91.19
2022-11-05T21:23:51.522Z,91.08
2022-11-05T21:26:19.443Z,90.96
2022-11-05T21:28:47.273Z,90.83
2022-11-05T21:31:15.151Z,91.14
2022-11-05T21:33:42.811Z,90.98
2022-11-05T21:36:14.266Z,91.49
2022-11-05T21:38:42.548Z,90.90
2022-11-05T21:41:12.436Z,91.00
2022-11-05T21:43:41.669Z,90.96
2022-11-05T21:46:09.466Z,90.71
2022-11-05T21:48:37.692Z,91.22
2022-11-05T21:51:19.717Z,91.06
2022-11-05T21:54:07.520Z,91.28
2022-11-05T21:56:52.762Z,91.24
2022-11-05T21:59:40.340Z,91.03
2022-11-05T22:02:12.737Z,90.78
2022-11-05T22:04:42.279Z,91.01
2022-11-05T22:07:11.080Z,91.24
2022-11-05T22:09:40.172Z,90.79
2022-11-05T22:12:08.525Z,91.15
2022-11-05T22:14:36.395Z,91.22
2022-11-05T22:17:04.104Z,91.48
2022-11-05T22:19:33.530Z,90.98
2022-11-05T22:22:01.061Z,90.81
2022-11-05T22:24:30.667Z,90.85
2022-11-05T22:26:59.741Z,90.93
2022-11-05T22:29:27.642Z,90.77
2022-11-05T22:31:57.472Z,90.74
2022-11-05T22:34:25.579Z,90.48
2022-11-05T22:36:53.726Z,90.69
2022-11-05T22:39:21.647Z,91.11
2022-11-05T22:41:49.910Z,91.28
2022-11-05T22:44:19.072Z,91.70
2022-11-05T22:46:46.938Z,91.20
2022-11-05T22:49:15.010Z,91.17
2022-11-05T22:51:43.721Z,91.45
2022-11-05T22:54:12.042Z,91.99
2022-11-05T22:56:41.223Z,92.59
2022-11-05T22:59:12.080Z,92.40
2022-11-05T23:01:41.935Z,92.79
2022-11-05T23:04:10.179Z,92.67
2022-11-05T23:06:55.491Z,92.29
2022-11-05T23:09:42.667Z,92.52
2022-11-05T23:12:21.036Z,92.23
2022-11-05T23:14:48.850Z,92.36
2022-11-05T23:17:35.885Z,91.72
2022-11-05T23:20:23.486Z,91.88
2022-11-05T23:23:08.807Z,91.76
2022-11-05T23:25:36.756Z,92.11
2022-11-05T23:28:07.769Z,92.17
2022-11-05T23:30:35.647Z,92.54
2022-11-05T23:33:03.865Z,92.65
2022-11-05T23:35:48.859Z,93.26
2022-11-05T23:38:35.364Z,93.21
2022-11-05T23:41:20.899Z,92.99
2022-11-05T23:44:06.330Z,93.37
2022-11-05T23:46:51.778Z,93.25
2022-11-05T23:49:20.962Z,93.09
2022-11-05T23:51:51.643Z,93.53
2022-11-05T23:54:19.394Z,93.19
2022-11-05T23:56:47.093Z,92.66
2022-11-05T23:59:14.762Z,92.41
